To NAV CANADA Home Page Login to a new session Search on AWWS site Feedback and Comments Disclaimer Vers la page française équivalente Tips FAQ What's new on the site To the Forecasts and Observations / NOTAM section To "File a Flight Plan" website Publications and other links Update of the User's profile FIC Telephone Numbers My Weather Data Folder Route Weather Data Regional Weather Data Local Weather Data To the Forecasts and Observations / NOTAM section
Request Generated 02/12/2016 at 03:23:21 UTC . Weather information available at that time is displayed.

METAR/TAF

GANDER/GANDER INTL/NL    

METAR CYQX 120300Z 24011G17KT 15SM FEW038 FEW240 M06/M09 A2946 RMK
SC1CI1 SLP986=
METAR CYQX 120200Z 25010KT 15SM FEW008 FEW038 SCT240 M06/M09 A2945
RMK SF1SC1CI1 SLP984=
METAR CYQX 120100Z 25010KT 15SM FEW008 BKN042 BKN240 M05/M08 A2945
RMK SF1SC5CI1 SLP983=

TAF CYQX 112338Z 1200/1224 24010KT P6SM FEW015 SCT030 TEMPO 1200/1203
5SM -SHSN BKN015 BKN030
FM120300 24012KT P6SM FEW020
FM121200 23008KT 6SM -SHSN BKN030 BKN080
FM121400 22008KT 4SM -SHSN BKN025 PROB30 1214/1218 2SM -SHSN
OVC020
FM121800 VRB03KT 11/2SM -SHSN OVC015 PROB40 1218/1222 3/4SM -SHSN
VV007
FM122200 28010G20KT P6SM FEW015 SCT040
RMK NXT FCST BY 120600Z=
Your time UTC time
Weather data provided by Environment Canada and NAV CANADA